Time;durP1;ratioP1;P1;durP2;ratioP2;P2;SDS_P1;SDS_P2;PMS_P1;PMS_P2;Temp;Humidity;BMP_temperature;BMP_pressure;BME280_temperature;BME280_humidity;BME280_pressure;Samples;Min_cycle;Max_cycle;Signal;HPM_P1;HPM_P2
2021/06/10 18:58:21;;;;;;;5.75;4.68;;;;;;;;;;5132017;27;20867;-94
2021/06/10 19:00:47;;;;;;;9.18;7.60;;;;;;;;;;5115616;28;20019;-93
2021/06/10 19:03:13;;;;;;;5.85;4.63;;;;;;;;;;5115796;28;20036;-91
2021/06/10 19:05:41;;;;;;;6.65;4.78;;;;;;;;;;5114585;28;20460;-91
2021/06/10 19:08:07;;;;;;;7.63;3.90;;;;;;;;;;5115830;28;20051;-75
2021/06/10 19:10:33;;;;;;;8.93;4.00;;;;;;;;;;5114803;28;20103;-74
2021/06/10 19:12:59;;;;;;;7.10;4.38;;;;;;;;;;5114025;28;20119;-74
2021/06/10 19:15:25;;;;;;;5.50;4.00;;;;;;;;;;5114621;28;20031;-74
2021/06/10 19:17:52;;;;;;;4.65;4.22;;;;;;;;;;5114479;28;20475;-74
2021/06/10 19:20:18;;;;;;;7.68;3.90;;;;;;;;;;5114517;28;20540;-74
2021/06/10 19:22:44;;;;;;;6.55;4.70;;;;;;;;;;5114462;28;20424;-74
2021/06/10 19:25:12;;;;;;;12.27;5.70;;;;;;;;;;5114581;28;20390;-74
2021/06/10 19:27:38;;;;;;;10.27;6.07;;;;;;;;;;5114477;28;20048;-74
2021/06/10 19:30:05;;;;;;;8.07;4.70;;;;;;;;;;5114533;28;20028;-74
2021/06/10 19:35:01;;;;;;;9.52;4.55;;;;;;;;;;5114283;28;20039;-74
2021/06/10 19:37:27;;;;;;;5.57;4.40;;;;;;;;;;5114124;28;20299;-75
2021/06/10 19:39:55;;;;;;;10.15;4.60;;;;;;;;;;5114580;28;20020;-88
2021/06/10 19:42:21;;;;;;;6.47;3.78;;;;;;;;;;5113862;28;20031;-92
2021/06/10 19:44:49;;;;;;;5.55;4.15;;;;;;;;;;5114146;28;20026;-92
2021/06/10 19:47:16;;;;;;;13.45;4.30;;;;;;;;;;5114658;28;20050;-92
2021/06/10 19:49:42;;;;;;;4.85;4.00;;;;;;;;;;5114381;28;20436;-93
2021/06/10 19:52:09;;;;;;;7.05;4.18;;;;;;;;;;5114800;28;20032;-92
2021/06/10 19:54:35;;;;;;;8.52;4.40;;;;;;;;;;5113677;28;20046;-92
2021/06/10 19:57:01;;;;;;;7.47;4.97;;;;;;;;;;5113087;28;20063;-92
2021/06/10 19:59:27;;;;;;;12.13;4.13;;;;;;;;;;5113583;28;20024;-94
2021/06/10 20:01:53;;;;;;;7.50;4.20;;;;;;;;;;5114621;28;20130;-92
2021/06/10 20:04:19;;;;;;;8.30;4.38;;;;;;;;;;5114372;28;20107;-91
2021/06/10 20:06:49;;;;;;;6.75;5.15;;;;;;;;;;5113358;28;20032;-92
2021/06/10 20:09:19;;;;;;;6.65;4.60;;;;;;;;;;5103017;28;20024;-91
2021/06/10 20:11:45;;;;;;;10.40;4.55;;;;;;;;;;5099774;28;20028;-93
2021/06/10 20:14:12;;;;;;;7.90;4.68;;;;;;;;;;5100674;28;20349;-92
2021/06/10 20:16:38;;;;;;;12.05;5.00;;;;;;;;;;5100508;28;20020;-92
2021/06/10 20:19:04;;;;;;;9.73;4.80;;;;;;;;;;5099753;28;20020;-91
2021/06/10 20:21:30;;;;;;;8.68;5.28;;;;;;;;;;5100599;28;20028;-91
2021/06/10 20:23:57;;;;;;;5.57;4.63;;;;;;;;;;5099468;28;20016;-92
2021/06/10 20:26:23;;;;;;;7.65;4.78;;;;;;;;;;5099538;28;20036;-92
2021/06/10 20:31:36;;;;;;;8.45;4.32;;;;;;;;;;5100529;28;20051;-91
2021/06/10 20:34:02;;;;;;;8.00;4.43;;;;;;;;;;5099463;28;20360;-91
2021/06/10 20:36:28;;;;;;;6.80;4.32;;;;;;;;;;5100103;28;20032;-92
2021/06/10 20:38:54;;;;;;;8.77;4.07;;;;;;;;;;5100315;28;20133;-91
2021/06/10 20:41:21;;;;;;;8.60;4.43;;;;;;;;;;5100172;28;20103;-92
2021/06/10 20:43:47;;;;;;;5.72;4.30;;;;;;;;;;5100047;28;20020;-91
2021/06/10 20:46:15;;;;;;;8.75;4.35;;;;;;;;;;5099150;28;20036;-91
2021/06/10 20:48:41;;;;;;;8.60;4.70;;;;;;;;;;5099081;28;20023;-91
2021/06/10 20:51:07;;;;;;;4.72;3.95;;;;;;;;;;5099055;28;20028;-91
2021/06/10 20:53:33;;;;;;;5.72;3.95;;;;;;;;;;5098775;28;20028;-91
2021/06/10 20:55:59;;;;;;;9.13;4.72;;;;;;;;;;5098543;28;20024;-91
2021/06/10 20:58:25;;;;;;;5.13;4.07;;;;;;;;;;5098827;28;20032;-91
2021/06/10 21:00:52;;;;;;;8.10;4.45;;;;;;;;;;5099792;28;20024;-92
2021/06/10 21:03:18;;;;;;;4.95;4.28;;;;;;;;;;5099518;28;20062;-92
2021/06/10 21:05:44;;;;;;;5.57;4.97;;;;;;;;;;5098735;28;20069;-92
2021/06/10 21:08:10;;;;;;;5.22;4.53;;;;;;;;;;5099720;28;20028;-92
2021/06/10 21:10:36;;;;;;;5.32;4.13;;;;;;;;;;5098910;28;20020;-91
2021/06/10 21:13:02;;;;;;;6.00;5.00;;;;;;;;;;5098418;28;20032;-92
2021/06/10 21:15:29;;;;;;;11.48;4.70;;;;;;;;;;5099364;28;20322;-90
2021/06/10 21:17:55;;;;;;;6.22;4.70;;;;;;;;;;5099492;28;20381;-91
2021/06/10 21:20:21;;;;;;;9.80;5.05;;;;;;;;;;5098200;28;20406;-91
2021/06/10 21:22:48;;;;;;;9.57;4.72;;;;;;;;;;5098313;28;20424;-92
2021/06/10 21:25:14;;;;;;;9.20;5.10;;;;;;;;;;5099388;28;20020;-92
2021/06/10 21:27:42;;;;;;;10.07;5.53;;;;;;;;;;5098349;28;20086;-91
2021/06/10 21:30:09;;;;;;;7.50;5.07;;;;;;;;;;5099156;28;20020;-91
2021/06/10 21:32:35;;;;;;;8.80;4.75;;;;;;;;;;5098259;28;20134;-91
2021/06/10 21:35:01;;;;;;;7.10;4.93;;;;;;;;;;5099227;28;20348;-92
2021/06/10 21:37:27;;;;;;;8.85;4.82;;;;;;;;;;5097962;28;20039;-91
2021/06/10 21:39:53;;;;;;;12.32;5.00;;;;;;;;;;5098725;28;20020;-91
2021/06/10 21:42:19;;;;;;;8.60;4.82;;;;;;;;;;5098956;28;20020;-92
2021/06/10 21:44:45;;;;;;;6.82;4.75;;;;;;;;;;5098795;28;20020;-93
2021/06/10 21:47:11;;;;;;;9.25;5.18;;;;;;;;;;5098038;28;20027;-91
2021/06/10 21:49:37;;;;;;;6.18;5.20;;;;;;;;;;5097816;28;20024;-91
2021/06/10 21:52:05;;;;;;;7.85;5.05;;;;;;;;;;5097830;28;20024;-92
2021/06/10 21:54:32;;;;;;;9.60;5.28;;;;;;;;;;5096343;28;20074;-92
2021/06/10 21:56:58;;;;;;;6.60;5.10;;;;;;;;;;5086620;28;20064;-92
2021/06/10 21:59:24;;;;;;;8.13;5.10;;;;;;;;;;5097750;28;20024;-92
2021/06/10 22:01:51;;;;;;;7.07;5.15;;;;;;;;;;5097772;28;20020;-92
2021/06/10 22:04:36;;;;;;;11.38;5.50;;;;;;;;;;5098682;28;20020;-92
2021/06/10 22:07:06;;;;;;;8.60;5.07;;;;;;;;;;5097620;28;20023;-92
2021/06/10 22:09:33;;;;;;;5.68;4.75;;;;;;;;;;5097499;28;20032;-91
2021/06/10 22:11:59;;;;;;;5.90;4.72;;;;;;;;;;5097610;28;20032;-93
2021/06/10 22:14:26;;;;;;;6.57;5.20;;;;;;;;;;5097742;28;20051;-92
2021/06/10 22:16:52;;;;;;;6.05;4.82;;;;;;;;;;5097308;28;20028;-91
2021/06/10 22:19:18;;;;;;;6.95;5.00;;;;;;;;;;5098248;28;20437;-92
2021/06/10 22:21:45;;;;;;;8.10;5.10;;;;;;;;;;5098154;28;20410;-92
2021/06/10 22:24:12;;;;;;;9.27;5.65;;;;;;;;;;5098161;28;20421;-93
2021/06/10 22:26:39;;;;;;;8.68;5.20;;;;;;;;;;5098286;28;20340;-91
2021/06/10 22:29:05;;;;;;;6.30;4.50;;;;;;;;;;5098201;28;20413;-92
2021/06/10 22:31:32;;;;;;;6.72;5.10;;;;;;;;;;5098255;28;20036;-92
2021/06/10 22:37:35;;;;;;;8.52;5.50;;;;;;;;;;5097942;28;20067;-93
2021/06/10 22:40:02;;;;;;;7.95;5.53;;;;;;;;;;5097104;28;20062;-91
2021/06/10 22:42:30;;;;;;;10.35;5.18;;;;;;;;;;5097159;28;20066;-91
2021/06/10 22:44:56;;;;;;;7.63;5.93;;;;;;;;;;5097035;28;20025;-91
2021/06/10 22:47:22;;;;;;;10.73;6.25;;;;;;;;;;5098310;28;20032;-91
2021/06/10 22:49:48;;;;;;;8.90;5.60;;;;;;;;;;5097782;28;20402;-92
2021/06/10 22:52:14;;;;;;;7.10;5.97;;;;;;;;;;5096821;28;20185;-92
2021/06/10 22:54:40;;;;;;;6.97;5.85;;;;;;;;;;5096825;28;20090;-92
2021/06/10 22:57:06;;;;;;;7.22;5.85;;;;;;;;;;5097600;28;20387;-91
2021/06/10 22:59:33;;;;;;;7.35;5.72;;;;;;;;;;5097418;28;20020;-91
2021/06/10 23:01:59;;;;;;;7.30;5.85;;;;;;;;;;5098178;28;20069;-91
2021/06/10 23:07:28;;;;;;;10.80;5.40;;;;;;;;;;5098073;28;20034;-91
2021/06/10 23:09:54;;;;;;;7.70;5.20;;;;;;;;;;5097850;28;20021;-90
2021/06/10 23:12:20;;;;;;;13.10;5.53;;;;;;;;;;5097945;28;20020;-92
2021/06/10 23:14:46;;;;;;;7.25;5.80;;;;;;;;;;5098002;28;20032;-93
2021/06/10 23:17:12;;;;;;;9.45;5.57;;;;;;;;;;5097423;28;20024;-91
2021/06/10 23:22:42;;;;;;;6.18;5.60;;;;;;;;;;5098008;28;20434;-92
2021/06/10 23:25:09;;;;;;;9.05;5.93;;;;;;;;;;5096695;28;20024;-91
2021/06/10 23:27:35;;;;;;;7.03;5.25;;;;;;;;;;5096515;28;20126;-93
2021/06/10 23:30:01;;;;;;;7.47;6.03;;;;;;;;;;5097812;28;20317;-92
2021/06/10 23:32:27;;;;;;;8.80;5.88;;;;;;;;;;5097386;28;20107;-91
2021/06/10 23:34:53;;;;;;;7.90;5.65;;;;;;;;;;5097770;28;20027;-92
2021/06/10 23:37:19;;;;;;;13.93;7.00;;;;;;;;;;5097701;28;20024;-92
2021/06/10 23:39:45;;;;;;;10.57;7.35;;;;;;;;;;5097811;28;20031;-93
2021/06/10 23:42:11;;;;;;;12.35;7.30;;;;;;;;;;5097320;28;20094;-93
2021/06/10 23:44:37;;;;;;;12.50;7.30;;;;;;;;;;5100364;28;20032;-91
2021/06/10 23:47:04;;;;;;;10.40;7.13;;;;;;;;;;5101381;28;20032;-92
2021/06/10 23:49:30;;;;;;;9.55;6.32;;;;;;;;;;5101517;28;20028;-92
2021/06/10 23:51:57;;;;;;;8.30;6.55;;;;;;;;;;5100129;28;20031;-92
2021/06/10 23:54:23;;;;;;;7.07;6.38;;;;;;;;;;5100869;28;20028;-91
2021/06/10 23:56:49;;;;;;;7.97;6.20;;;;;;;;;;5100738;28;20426;-92
2021/06/10 23:59:15;;;;;;;7.75;6.28;;;;;;;;;;5101255;28;20024;-91
